createdAt,value
2023-05-01T00:00:44.430Z,88268.00
2023-05-01T00:01:44.394Z,88266.00
2023-05-01T00:02:44.461Z,88264.00
2023-05-01T00:03:44.509Z,88262.00
2023-05-01T00:04:44.343Z,88262.00
2023-05-01T00:05:44.325Z,88260.00
2023-05-01T00:06:44.360Z,88260.00
2023-05-01T00:07:44.265Z,88260.00
2023-05-01T00:08:44.234Z,88258.00
2023-05-01T00:09:44.202Z,88254.00
2023-05-01T00:10:44.170Z,88258.00
2023-05-01T00:11:44.141Z,88256.00
2023-05-01T00:12:44.120Z,88254.00
2023-05-01T00:13:44.113Z,88250.00
2023-05-01T00:14:44.063Z,88246.00
2023-05-01T00:15:44.038Z,88246.00
2023-05-01T00:16:44.068Z,88250.00
2023-05-01T00:17:43.989Z,88244.00
2023-05-01T00:18:43.950Z,88246.00
2023-05-01T00:19:43.909Z,88246.00
2023-05-01T00:20:43.886Z,88246.00
2023-05-01T00:21:43.848Z,88246.00
2023-05-01T00:22:43.823Z,88244.00
2023-05-01T00:23:43.791Z,88244.00
2023-05-01T00:24:43.768Z,88243.00
2023-05-01T00:25:43.732Z,88244.00
2023-05-01T00:26:43.720Z,88244.00
2023-05-01T00:27:43.691Z,88244.00
2023-05-01T00:28:43.667Z,88244.00
2023-05-01T00:29:43.637Z,88241.00
2023-05-01T00:30:43.604Z,88237.00
2023-05-01T00:31:43.619Z,88237.00
2023-05-01T00:32:43.583Z,88241.00
2023-05-01T00:33:43.520Z,88237.00
2023-05-01T00:34:43.494Z,88237.00
2023-05-01T00:35:43.473Z,88235.00
2023-05-01T00:36:43.451Z,88241.00
2023-05-01T00:37:43.414Z,88237.00
2023-05-01T00:38:43.384Z,88235.00
2023-05-01T00:39:43.352Z,88237.00
2023-05-01T00:40:43.341Z,88233.00
2023-05-01T00:41:43.304Z,88235.00
2023-05-01T00:42:43.279Z,88233.00
2023-05-01T00:43:43.248Z,88235.00
2023-05-01T00:44:43.222Z,88229.00
2023-05-01T00:45:43.258Z,88237.00
2023-05-01T00:46:43.183Z,88231.00
2023-05-01T00:47:43.197Z,88229.00
2023-05-01T00:48:43.128Z,88229.00
2023-05-01T00:49:43.110Z,88227.00
2023-05-01T00:50:43.112Z,88229.00
2023-05-01T00:51:43.098Z,88227.00
2023-05-01T00:52:43.059Z,88231.00
2023-05-01T00:53:43.020Z,88229.00
2023-05-01T00:54:42.993Z,88227.00
2023-05-01T00:55:43.000Z,88227.00
2023-05-01T00:56:42.949Z,88227.00
2023-05-01T00:57:42.934Z,88225.00
2023-05-01T00:58:42.892Z,88225.00
2023-05-01T00:59:42.864Z,88227.00
2023-05-01T01:00:42.844Z,88227.00
2023-05-01T01:01:42.892Z,88225.00
2023-05-01T01:02:42.823Z,88223.00
2023-05-01T01:03:42.782Z,88225.00
2023-05-01T01:04:42.805Z,88225.00
2023-05-01T01:05:42.701Z,88225.00
2023-05-01T01:06:42.818Z,88227.00
2023-05-01T01:07:42.657Z,88225.00
2023-05-01T01:08:42.621Z,88227.00
2023-05-01T01:09:42.584Z,88227.00
2023-05-01T01:10:42.590Z,88227.00
2023-05-01T01:11:42.535Z,88223.00
2023-05-01T01:12:42.520Z,88223.00
2023-05-01T01:13:42.510Z,88223.00
2023-05-01T01:14:42.475Z,88223.00
2023-05-01T01:15:42.443Z,88223.00
2023-05-01T01:16:42.427Z,88221.00
2023-05-01T01:17:42.432Z,88214.00
2023-05-01T01:18:42.359Z,88223.00
2023-05-01T01:19:42.340Z,88229.00
2023-05-01T01:20:42.340Z,88214.00
2023-05-01T01:21:42.289Z,88223.00
2023-05-01T01:22:42.279Z,88223.00
2023-05-01T01:23:42.274Z,88212.00
2023-05-01T01:24:42.251Z,88214.00
2023-05-01T01:25:42.184Z,88223.00
2023-05-01T01:26:42.150Z,88221.00
2023-05-01T01:27:42.121Z,88225.00
2023-05-01T01:28:42.092Z,88223.00
2023-05-01T01:29:42.060Z,88223.00
2023-05-01T01:30:42.075Z,88223.00
2023-05-01T01:31:42.068Z,88225.00
2023-05-01T01:32:42.006Z,88227.00
2023-05-01T01:33:41.942Z,88227.00
2023-05-01T01:34:41.922Z,88225.00
2023-05-01T01:35:41.908Z,88227.00
2023-05-01T01:36:41.895Z,88225.00
2023-05-01T01:37:41.899Z,88225.00
2023-05-01T01:38:41.932Z,88227.00
2023-05-01T01:39:41.879Z,88227.00
2023-05-01T01:40:41.884Z,88227.00
2023-05-01T01:41:41.873Z,88227.00
2023-05-01T01:42:41.869Z,88225.00
2023-05-01T01:43:41.869Z,88225.00
2023-05-01T01:44:41.865Z,88235.00
2023-05-01T01:45:41.850Z,88229.00
2023-05-01T01:46:41.864Z,88229.00
2023-05-01T01:47:41.996Z,88227.00
2023-05-01T01:48:41.847Z,88225.00
2023-05-01T01:49:41.831Z,88223.00
2023-05-01T01:50:41.833Z,88225.00
2023-05-01T01:51:41.821Z,88225.00
2023-05-01T01:52:41.830Z,88223.00
2023-05-01T01:53:41.827Z,88221.00
2023-05-01T01:54:41.825Z,88214.00
2023-05-01T01:55:41.823Z,88223.00
2023-05-01T01:56:41.818Z,88227.00
2023-05-01T01:57:41.811Z,88227.00
2023-05-01T01:58:41.815Z,88227.00
2023-05-01T01:59:41.808Z,88233.00
2023-05-01T02:00:41.879Z,88225.00
2023-05-01T02:01:41.926Z,88227.00
2023-05-01T02:02:41.882Z,88221.00
2023-05-01T02:03:41.912Z,88223.00
2023-05-01T02:04:41.821Z,88214.00
2023-05-01T02:05:41.812Z,88214.00
2023-05-01T02:06:41.861Z,88225.00
2023-05-01T02:07:41.820Z,88223.00
2023-05-01T02:08:41.812Z,88225.00
2023-05-01T02:09:41.810Z,88229.00
2023-05-01T02:10:41.827Z,88214.00
2023-05-01T02:11:41.809Z,88221.00
2023-05-01T02:12:41.828Z,88227.00
2023-05-01T02:13:41.827Z,88227.00
2023-05-01T02:14:41.802Z,88227.00
2023-05-01T02:15:41.849Z,88221.00
2023-05-01T02:16:41.955Z,88227.00
2023-05-01T02:17:41.816Z,88210.00
2023-05-01T02:18:41.815Z,88223.00
2023-05-01T02:19:41.871Z,88223.00
2023-05-01T02:20:41.826Z,88214.00
2023-05-01T02:21:41.815Z,88214.00
2023-05-01T02:22:41.804Z,88208.00
2023-05-01T02:23:41.809Z,88208.00
2023-05-01T02:24:41.795Z,88208.00
2023-05-01T02:25:41.820Z,88204.00
2023-05-01T02:26:41.808Z,88204.00
2023-05-01T02:27:41.842Z,88202.00
2023-05-01T02:28:41.807Z,88200.00
2023-05-01T02:29:41.834Z,88200.00
2023-05-01T02:30:41.824Z,88198.00
2023-05-01T02:31:41.867Z,88198.00
2023-05-01T02:32:41.863Z,88196.00
2023-05-01T02:33:41.815Z,88192.00
2023-05-01T02:34:41.823Z,88194.00
2023-05-01T02:35:41.850Z,88194.00
2023-05-01T02:36:41.836Z,88192.00
2023-05-01T02:37:41.822Z,88196.00
2023-05-01T02:38:41.837Z,88192.00
2023-05-01T02:39:41.950Z,88192.00
2023-05-01T02:40:41.849Z,88190.00
2023-05-01T02:41:41.849Z,88190.00
2023-05-01T02:42:41.852Z,88192.00
2023-05-01T02:43:41.843Z,88192.00
2023-05-01T02:44:41.868Z,88192.00
2023-05-01T02:45:41.869Z,88194.00
2023-05-01T02:46:41.846Z,88192.00
2023-05-01T02:47:41.863Z,88188.00
2023-05-01T02:48:41.844Z,88190.00
2023-05-01T02:49:41.843Z,88188.00
2023-05-01T02:50:41.848Z,88188.00
2023-05-01T02:51:41.856Z,88186.00
2023-05-01T02:52:41.854Z,88188.00
2023-05-01T02:53:41.869Z,88184.00
2023-05-01T02:54:41.875Z,88184.00
2023-05-01T02:55:41.861Z,88181.00
2023-05-01T02:56:41.842Z,88183.00
2023-05-01T02:57:41.812Z,88181.00
2023-05-01T02:58:41.783Z,88183.00
2023-05-01T02:59:41.762Z,88181.00
2023-05-01T03:00:41.730Z,88179.00
2023-05-01T03:01:41.796Z,88177.00
2023-05-01T03:02:41.723Z,88173.00
2023-05-01T03:03:41.760Z,88177.00
2023-05-01T03:04:41.741Z,88173.00
2023-05-01T03:05:41.642Z,88175.00
2023-05-01T03:06:41.786Z,88175.00
2023-05-01T03:07:41.570Z,88169.00
2023-05-01T03:08:41.551Z,88167.00
2023-05-01T03:09:41.528Z,88165.00
2023-05-01T03:10:41.522Z,88165.00
2023-05-01T03:11:41.543Z,88163.00
2023-05-01T03:12:41.470Z,88163.00
2023-05-01T03:13:41.490Z,88171.00
2023-05-01T03:14:41.489Z,88165.00
2023-05-01T03:15:41.512Z,88163.00
2023-05-01T03:16:41.660Z,88167.00
2023-05-01T03:17:41.575Z,88159.00
2023-05-01T03:18:41.566Z,88157.00
2023-05-01T03:19:41.567Z,88163.00
2023-05-01T03:20:41.556Z,88161.00
2023-05-01T03:21:41.565Z,88161.00
2023-05-01T03:22:41.546Z,88159.00
2023-05-01T03:23:41.537Z,88155.00
2023-05-01T03:24:41.530Z,88159.00
2023-05-01T03:25:41.524Z,88159.00
2023-05-01T03:26:41.538Z,88151.00
2023-05-01T03:27:41.517Z,88151.00
2023-05-01T03:28:41.512Z,88155.00
2023-05-01T03:29:41.518Z,88155.00
2023-05-01T03:30:41.521Z,88155.00
2023-05-01T03:31:41.558Z,88155.00
2023-05-01T03:32:41.549Z,88153.00
2023-05-01T03:33:41.534Z,88155.00
2023-05-01T03:34:41.545Z,88153.00
2023-05-01T03:35:41.605Z,88151.00
2023-05-01T03:36:41.559Z,88153.00
2023-05-01T03:37:41.549Z,88153.00
2023-05-01T03:38:41.523Z,88149.00
2023-05-01T03:39:41.512Z,88145.00
2023-05-01T03:40:41.474Z,88145.00
2023-05-01T03:41:41.470Z,88147.00
2023-05-01T03:42:41.452Z,88145.00
2023-05-01T03:43:41.410Z,88143.00
2023-05-01T03:44:41.389Z,88143.00
2023-05-01T03:45:44.254Z,88143.00
2023-05-01T03:46:41.414Z,88141.00
2023-05-01T03:47:41.375Z,88143.00
2023-05-01T03:48:41.319Z,88143.00
2023-05-01T03:49:41.297Z,88143.00
2023-05-01T03:50:41.289Z,88141.00
2023-05-01T03:51:41.263Z,88141.00
2023-05-01T03:52:41.246Z,88136.00
2023-05-01T03:53:41.215Z,88143.00
2023-05-01T03:54:41.218Z,88139.00
2023-05-01T03:55:41.184Z,88139.00
2023-05-01T03:56:41.172Z,88139.00
2023-05-01T03:57:41.158Z,88139.00
2023-05-01T03:58:41.127Z,88141.00
2023-05-01T03:59:41.104Z,88137.00
2023-05-01T04:00:41.088Z,88136.00
2023-05-01T04:01:41.116Z,88136.00
2023-05-01T04:02:41.133Z,88136.00
2023-05-01T04:03:41.205Z,88139.00
2023-05-01T04:04:41.123Z,88137.00
2023-05-01T04:05:40.997Z,88134.00
2023-05-01T04:06:41.096Z,88136.00
2023-05-01T04:07:40.964Z,88134.00
2023-05-01T04:08:40.940Z,88126.00
2023-05-01T04:09:40.918Z,88137.00
2023-05-01T04:10:40.903Z,88134.00
2023-05-01T04:11:40.872Z,88132.00
2023-05-01T04:12:40.855Z,88134.00
2023-05-01T04:13:40.844Z,88134.00
2023-05-01T04:14:40.808Z,88134.00
2023-05-01T04:15:40.871Z,88137.00
2023-05-01T04:16:40.894Z,88134.00
2023-05-01T04:17:40.897Z,88132.00
2023-05-01T04:18:40.861Z,88130.00
2023-05-01T04:19:40.866Z,88136.00
2023-05-01T04:20:40.871Z,88134.00
2023-05-01T04:21:40.887Z,88132.00
2023-05-01T04:22:40.874Z,88132.00
2023-05-01T04:23:40.875Z,88134.00
2023-05-01T04:24:40.868Z,88136.00
2023-05-01T04:25:40.899Z,88134.00
2023-05-01T04:26:40.864Z,88136.00
2023-05-01T04:27:40.855Z,88130.00
2023-05-01T04:28:40.813Z,88134.00
2023-05-01T04:29:40.804Z,88136.00
2023-05-01T04:30:40.791Z,88136.00
2023-05-01T04:31:40.775Z,88134.00
2023-05-01T04:32:40.816Z,88132.00
2023-05-01T04:33:40.724Z,88132.00
2023-05-01T04:34:40.689Z,88130.00
2023-05-01T04:35:40.697Z,88130.00
2023-05-01T04:36:40.659Z,88130.00
2023-05-01T04:37:40.660Z,88124.00
2023-05-01T04:38:40.630Z,88130.00
2023-05-01T04:39:40.622Z,88130.00
2023-05-01T04:40:40.652Z,88128.00
2023-05-01T04:41:40.672Z,88124.00
2023-05-01T04:42:40.661Z,88132.00
2023-05-01T04:43:40.686Z,88130.00
2023-05-01T04:44:40.722Z,88130.00
2023-05-01T04:45:40.738Z,88130.00
2023-05-01T04:46:40.827Z,88124.00
2023-05-01T04:47:40.874Z,88128.00
2023-05-01T04:48:40.812Z,88130.00
2023-05-01T04:49:40.819Z,88126.00
2023-05-01T04:50:40.856Z,88126.00
2023-05-01T04:51:40.908Z,88130.00
2023-05-01T04:52:40.904Z,88132.00
2023-05-01T04:53:40.901Z,88132.00
2023-05-01T04:54:40.908Z,88134.00
2023-05-01T04:55:40.908Z,88136.00
2023-05-01T04:56:40.896Z,88130.00
2023-05-01T04:57:40.900Z,88130.00
2023-05-01T04:58:40.880Z,88130.00
2023-05-01T04:59:40.881Z,88134.00
2023-05-01T05:00:40.865Z,88128.00
2023-05-01T05:01:41.003Z,88132.00
2023-05-01T05:02:40.938Z,88134.00
2023-05-01T05:03:40.943Z,88130.00
2023-05-01T05:04:40.845Z,88128.00
2023-05-01T05:05:40.844Z,88134.00
2023-05-01T05:06:40.922Z,88134.00
2023-05-01T05:07:40.821Z,88139.00
2023-05-01T05:08:40.830Z,88136.00
2023-05-01T05:09:40.811Z,88136.00
2023-05-01T05:10:40.810Z,88141.00
2023-05-01T05:11:40.789Z,88136.00
2023-05-01T05:12:40.767Z,88137.00
2023-05-01T05:13:40.758Z,88130.00
2023-05-01T05:14:40.735Z,88136.00
2023-05-01T05:15:40.721Z,88134.00
2023-05-01T05:16:40.779Z,88134.00
2023-05-01T05:17:40.726Z,88136.00
2023-05-01T05:18:40.693Z,88136.00
2023-05-01T05:19:40.665Z,88134.00
2023-05-01T05:20:40.650Z,88132.00
2023-05-01T05:21:40.661Z,88136.00
2023-05-01T05:22:40.640Z,88137.00
2023-05-01T05:23:40.630Z,88132.00
2023-05-01T05:24:40.621Z,88137.00
2023-05-01T05:25:40.602Z,88136.00
2023-05-01T05:26:40.608Z,88136.00
2023-05-01T05:27:40.578Z,88132.00
2023-05-01T05:28:40.560Z,88130.00
2023-05-01T05:29:40.576Z,88134.00
2023-05-01T05:30:40.544Z,88136.00
2023-05-01T05:31:40.573Z,88132.00
2023-05-01T05:32:40.531Z,88134.00
2023-05-01T05:33:40.517Z,88128.00
2023-05-01T05:34:40.489Z,88130.00
2023-05-01T05:35:40.480Z,88130.00
2023-05-01T05:36:40.489Z,88132.00
2023-05-01T05:37:40.460Z,88128.00
2023-05-01T05:38:40.452Z,88130.00
2023-05-01T05:39:40.433Z,88130.00
2023-05-01T05:40:40.439Z,88128.00
2023-05-01T05:41:40.429Z,88134.00
2023-05-01T05:42:40.404Z,88130.00
2023-05-01T05:43:40.393Z,88134.00
2023-05-01T05:44:40.357Z,88132.00
2023-05-01T05:45:40.406Z,88137.00
2023-05-01T05:46:40.513Z,88132.00
2023-05-01T05:47:40.380Z,88128.00
2023-05-01T05:48:40.308Z,88130.00
2023-05-01T05:49:40.305Z,88132.00
2023-05-01T05:50:40.303Z,88128.00
2023-05-01T05:51:40.284Z,88132.00
2023-05-01T05:52:40.272Z,88130.00
2023-05-01T05:53:40.274Z,88137.00
2023-05-01T05:54:40.258Z,88132.00
2023-05-01T05:55:40.249Z,88128.00
2023-05-01T05:56:40.259Z,88128.00
2023-05-01T05:57:40.224Z,88126.00
2023-05-01T05:58:40.217Z,88130.00
2023-05-01T05:59:40.197Z,88126.00
2023-05-01T06:00:40.187Z,88126.00
2023-05-01T06:01:40.189Z,88132.00
2023-05-01T06:02:40.230Z,88126.00
2023-05-01T06:03:40.271Z,88126.00
2023-05-01T06:04:40.127Z,88128.00
2023-05-01T06:05:40.240Z,88130.00
2023-05-01T06:06:40.178Z,88128.00
2023-05-01T06:07:40.100Z,88132.00
2023-05-01T06:08:40.068Z,88126.00
2023-05-01T06:09:40.073Z,88128.00
2023-05-01T06:10:40.032Z,88124.00
2023-05-01T06:11:40.039Z,88126.00
2023-05-01T06:12:42.964Z,88130.00
2023-05-01T06:13:41.004Z,88126.00
2023-05-01T06:14:39.975Z,88128.00
2023-05-01T06:15:39.997Z,88128.00
2023-05-01T06:16:40.010Z,88124.00
2023-05-01T06:17:39.985Z,88128.00
2023-05-01T06:18:39.916Z,88126.00
2023-05-01T06:19:39.915Z,88128.00
2023-05-01T06:20:39.910Z,88124.00
2023-05-01T06:21:39.891Z,88128.00
2023-05-01T06:22:39.881Z,88128.00
2023-05-01T06:23:39.874Z,88124.00
2023-05-01T06:24:39.889Z,88124.00
2023-05-01T06:25:39.837Z,88126.00
2023-05-01T06:26:39.844Z,88134.00
2023-05-01T06:27:39.830Z,88126.00
2023-05-01T06:28:39.795Z,88130.00
2023-05-01T06:29:39.799Z,88134.00
2023-05-01T06:30:39.770Z,88128.00
2023-05-01T06:31:39.837Z,88128.00
2023-05-01T06:32:39.753Z,88128.00
2023-05-01T06:33:39.743Z,88134.00
2023-05-01T06:34:39.748Z,88128.00
2023-05-01T06:35:39.701Z,88126.00
2023-05-01T06:36:39.780Z,88128.00
2023-05-01T06:37:39.719Z,88130.00
2023-05-01T06:38:39.696Z,88126.00
2023-05-01T06:39:39.674Z,88128.00
2023-05-01T06:40:39.683Z,88126.00
2023-05-01T06:41:39.644Z,88130.00
2023-05-01T06:42:39.649Z,88126.00
2023-05-01T06:43:39.617Z,88128.00
2023-05-01T06:44:39.627Z,88130.00
2023-05-01T06:45:39.612Z,88124.00
2023-05-01T06:46:39.630Z,88132.00
2023-05-01T06:47:39.563Z,88130.00
2023-05-01T06:48:39.551Z,88132.00
2023-05-01T06:49:39.529Z,88130.00
2023-05-01T06:50:39.535Z,88128.00
2023-05-01T06:51:39.514Z,88132.00
2023-05-01T06:52:39.503Z,88130.00
2023-05-01T06:53:39.493Z,88134.00
2023-05-01T06:54:39.472Z,88134.00
2023-05-01T06:55:39.465Z,88136.00
2023-05-01T06:56:39.433Z,88128.00
2023-05-01T06:57:39.436Z,88136.00
2023-05-01T06:58:39.402Z,88130.00
2023-05-01T06:59:39.421Z,88134.00
2023-05-01T07:00:39.521Z,88136.00
2023-05-01T07:01:39.398Z,88132.00
2023-05-01T07:02:39.443Z,88126.00
2023-05-01T07:03:39.388Z,88132.00
2023-05-01T07:04:39.347Z,88132.00
2023-05-01T07:05:39.308Z,88132.00
2023-05-01T07:06:39.338Z,88132.00
2023-05-01T07:07:42.468Z,88134.00
2023-05-01T07:08:40.270Z,88134.00
2023-05-01T07:09:39.246Z,88132.00
2023-05-01T07:10:41.802Z,88134.00
2023-05-01T07:11:39.229Z,88130.00
2023-05-01T07:12:39.246Z,88132.00
2023-05-01T07:13:39.202Z,88134.00
2023-05-01T07:14:39.186Z,88134.00
2023-05-01T07:15:39.158Z,88132.00
2023-05-01T07:16:39.202Z,88134.00
2023-05-01T07:17:39.151Z,88132.00
2023-05-01T07:18:39.127Z,88136.00
2023-05-01T07:19:39.087Z,88132.00
2023-05-01T07:20:39.093Z,88136.00
2023-05-01T07:21:39.065Z,88134.00
2023-05-01T07:22:39.062Z,88137.00
2023-05-01T07:23:39.039Z,88141.00
2023-05-01T07:24:39.069Z,88137.00
2023-05-01T07:25:39.005Z,88137.00
2023-05-01T07:26:38.981Z,88134.00
2023-05-01T07:27:39.240Z,88137.00
2023-05-01T07:28:38.944Z,88134.00
2023-05-01T07:29:38.943Z,88137.00
2023-05-01T07:30:38.919Z,88134.00
2023-05-01T07:31:38.942Z,88136.00
2023-05-01T07:32:38.969Z,88141.00
2023-05-01T07:33:38.866Z,88134.00
2023-05-01T07:34:38.840Z,88134.00
2023-05-01T07:35:38.849Z,88132.00
2023-05-01T07:36:38.850Z,88134.00
2023-05-01T07:37:38.810Z,88130.00
2023-05-01T07:38:38.790Z,88130.00
2023-05-01T07:39:38.777Z,88130.00
2023-05-01T07:40:38.755Z,88137.00
2023-05-01T07:41:38.746Z,88132.00
2023-05-01T07:42:38.731Z,88136.00
2023-05-01T07:43:38.718Z,88134.00
2023-05-01T07:44:38.693Z,88134.00
2023-05-01T07:45:38.694Z,88137.00
2023-05-01T07:46:38.758Z,88136.00
2023-05-01T07:47:38.687Z,88137.00
2023-05-01T07:48:39.152Z,88139.00
2023-05-01T07:49:38.603Z,88139.00
2023-05-01T07:50:38.590Z,88141.00
2023-05-01T07:51:38.570Z,88137.00
2023-05-01T07:52:38.602Z,88137.00
2023-05-01T07:53:38.556Z,88137.00
2023-05-01T07:54:38.557Z,88143.00
2023-05-01T07:55:38.541Z,88137.00
2023-05-01T07:56:38.515Z,88139.00
2023-05-01T07:57:38.480Z,88143.00
2023-05-01T07:58:38.488Z,88143.00
2023-05-01T07:59:38.435Z,88137.00
2023-05-01T08:00:38.426Z,88143.00
2023-05-01T08:01:38.403Z,88141.00
2023-05-01T08:02:38.489Z,88143.00
2023-05-01T08:03:38.590Z,88147.00
2023-05-01T08:04:38.437Z,88143.00
2023-05-01T08:05:38.449Z,88143.00
2023-05-01T08:06:38.537Z,88139.00
2023-05-01T08:07:38.471Z,88141.00
2023-05-01T08:08:38.463Z,88136.00
2023-05-01T08:09:38.462Z,88141.00
2023-05-01T08:10:38.502Z,88139.00
2023-05-01T08:11:38.472Z,88147.00
2023-05-01T08:12:38.466Z,88145.00
2023-05-01T08:13:38.464Z,88151.00
2023-05-01T08:14:38.475Z,88143.00
2023-05-01T08:15:38.515Z,88149.00
2023-05-01T08:16:38.691Z,88141.00
2023-05-01T08:17:38.593Z,88145.00
2023-05-01T08:18:38.507Z,88155.00
2023-05-01T08:19:38.485Z,88137.00
2023-05-01T08:20:38.564Z,88137.00
2023-05-01T08:21:38.514Z,88134.00
2023-05-01T08:22:38.530Z,88139.00
2023-05-01T08:23:38.488Z,88139.00
2023-05-01T08:24:38.481Z,88143.00
2023-05-01T08:25:38.456Z,88139.00
2023-05-01T08:26:38.455Z,88145.00
2023-05-01T08:27:38.458Z,88141.00
2023-05-01T08:28:38.424Z,88143.00
2023-05-01T08:29:38.398Z,88143.00
2023-05-01T08:30:38.401Z,88145.00
2023-05-01T08:31:38.375Z,88141.00
2023-05-01T08:32:38.387Z,88141.00
2023-05-01T08:33:38.328Z,88147.00
2023-05-01T08:34:38.330Z,88145.00
2023-05-01T08:35:38.303Z,88151.00
2023-05-01T08:36:38.360Z,88147.00
2023-05-01T08:37:38.301Z,88143.00
2023-05-01T08:38:38.280Z,88143.00
2023-05-01T08:39:38.271Z,88145.00
2023-05-01T08:40:38.270Z,88143.00
2023-05-01T08:41:38.257Z,88143.00
2023-05-01T08:42:38.254Z,88145.00
2023-05-01T08:43:38.278Z,88141.00
2023-05-01T08:44:38.279Z,88141.00
2023-05-01T08:45:38.381Z,88145.00
2023-05-01T08:46:38.388Z,88145.00
2023-05-01T08:47:38.495Z,88145.00
2023-05-01T08:48:38.404Z,88143.00
2023-05-01T08:49:38.397Z,88137.00
2023-05-01T08:50:38.389Z,88145.00
2023-05-01T08:51:38.369Z,88141.00
2023-05-01T08:52:38.361Z,88145.00
2023-05-01T08:53:38.330Z,88147.00
2023-05-01T08:54:38.326Z,88147.00
2023-05-01T08:55:38.313Z,88145.00
2023-05-01T08:56:38.304Z,88149.00
2023-05-01T08:57:38.290Z,88145.00
2023-05-01T08:58:38.562Z,88149.00
2023-05-01T08:59:38.246Z,88153.00
2023-05-01T09:00:38.236Z,88159.00
2023-05-01T09:01:38.326Z,88155.00
2023-05-01T09:02:38.308Z,88161.00
2023-05-01T09:03:38.458Z,88159.00
2023-05-01T09:04:38.385Z,88163.00
2023-05-01T09:05:38.415Z,88167.00
2023-05-01T09:06:38.469Z,88163.00
2023-05-01T09:07:38.444Z,88161.00
2023-05-01T09:08:38.406Z,88161.00
2023-05-01T09:09:38.384Z,88159.00
2023-05-01T09:10:38.380Z,88161.00
2023-05-01T09:11:38.356Z,88157.00
2023-05-01T09:12:38.323Z,88161.00
2023-05-01T09:13:38.295Z,88159.00
2023-05-01T09:14:38.266Z,88159.00
2023-05-01T09:15:38.253Z,88167.00
2023-05-01T09:16:38.296Z,88159.00
2023-05-01T09:17:38.206Z,88159.00
2023-05-01T09:18:38.163Z,88165.00
2023-05-01T09:19:38.152Z,88165.00
2023-05-01T09:20:38.128Z,88163.00
2023-05-01T09:21:38.103Z,88163.00
2023-05-01T09:22:38.067Z,88165.00
2023-05-01T09:23:38.036Z,88165.00
2023-05-01T09:24:38.045Z,88165.00
2023-05-01T09:25:38.005Z,88167.00
2023-05-01T09:26:37.973Z,88163.00
2023-05-01T09:27:37.945Z,88163.00
2023-05-01T09:28:37.935Z,88161.00
2023-05-01T09:29:37.946Z,88167.00
2023-05-01T09:30:37.892Z,88161.00
2023-05-01T09:31:37.898Z,88169.00
2023-05-01T09:32:38.262Z,88163.00
2023-05-01T09:33:37.814Z,88169.00
2023-05-01T09:34:37.813Z,88167.00
2023-05-01T09:35:37.882Z,88165.00
2023-05-01T09:36:37.857Z,88169.00
2023-05-01T09:37:37.880Z,88167.00
2023-05-01T09:38:37.915Z,88165.00
2023-05-01T09:39:37.953Z,88167.00
2023-05-01T09:40:37.990Z,88165.00
2023-05-01T09:41:38.024Z,88161.00
2023-05-01T09:42:38.041Z,88163.00
2023-05-01T09:43:38.065Z,88167.00
2023-05-01T09:44:38.080Z,88161.00
2023-05-01T09:45:38.153Z,88167.00
2023-05-01T09:46:38.209Z,88165.00
2023-05-01T09:47:38.252Z,88163.00
2023-05-01T09:48:38.281Z,88165.00
2023-05-01T09:49:38.316Z,88165.00
2023-05-01T09:50:38.355Z,88163.00
2023-05-01T09:51:38.408Z,88159.00
2023-05-01T09:52:38.466Z,88161.00
2023-05-01T09:53:38.493Z,88161.00
2023-05-01T09:54:38.581Z,88165.00
2023-05-01T09:55:38.577Z,88163.00
2023-05-01T09:56:38.593Z,88155.00
2023-05-01T09:57:38.647Z,88157.00
2023-05-01T09:58:38.683Z,88161.00
2023-05-01T09:59:38.732Z,88159.00
2023-05-01T10:00:38.763Z,88157.00
2023-05-01T10:01:38.900Z,88155.00
2023-05-01T10:02:38.920Z,88149.00
2023-05-01T10:03:38.996Z,88153.00
2023-05-01T10:04:38.734Z,88155.00
2023-05-01T10:05:38.722Z,88153.00
2023-05-01T10:06:38.974Z,88151.00
2023-05-01T10:07:38.680Z,88153.00
2023-05-01T10:08:38.648Z,88149.00
2023-05-01T10:09:38.639Z,88153.00
2023-05-01T10:10:38.610Z,88155.00
2023-05-01T10:11:38.591Z,88157.00
2023-05-01T10:12:38.562Z,88159.00
2023-05-01T10:13:38.547Z,88159.00
2023-05-01T10:14:38.569Z,88159.00
2023-05-01T10:15:38.597Z,88163.00
2023-05-01T10:16:38.729Z,88157.00
2023-05-01T10:17:38.745Z,88155.00
2023-05-01T10:18:38.705Z,88157.00
2023-05-01T10:19:38.698Z,88157.00
2023-05-01T10:20:38.748Z,88151.00
2023-05-01T10:21:38.783Z,88157.00
2023-05-01T10:22:38.787Z,88155.00
2023-05-01T10:23:38.793Z,88155.00
2023-05-01T10:24:38.826Z,88157.00
2023-05-01T10:25:38.847Z,88159.00
2023-05-01T10:26:38.861Z,88157.00
2023-05-01T10:27:38.883Z,88157.00
2023-05-01T10:28:38.924Z,88157.00
2023-05-01T10:29:38.947Z,88157.00
2023-05-01T10:30:38.948Z,88159.00
2023-05-01T10:31:41.514Z,88155.00
2023-05-01T10:32:39.032Z,88151.00
2023-05-01T10:33:38.891Z,88151.00
2023-05-01T10:34:38.877Z,88155.00
2023-05-01T10:35:38.865Z,88161.00
2023-05-01T10:36:38.826Z,88155.00
2023-05-01T10:37:38.835Z,88155.00
2023-05-01T10:38:38.776Z,88159.00
2023-05-01T10:39:38.996Z,88155.00
2023-05-01T10:40:38.746Z,88155.00
2023-05-01T10:41:38.714Z,88155.00
2023-05-01T10:42:38.674Z,88157.00
2023-05-01T10:43:38.635Z,88155.00
2023-05-01T10:44:38.631Z,88151.00
2023-05-01T10:45:38.586Z,88159.00
2023-05-01T10:46:38.596Z,88153.00
2023-05-01T10:47:38.566Z,88157.00
2023-05-01T10:48:38.519Z,88157.00
2023-05-01T10:49:38.496Z,88153.00
2023-05-01T10:50:38.475Z,88157.00
2023-05-01T10:51:38.440Z,88159.00
2023-05-01T10:52:38.443Z,88153.00
2023-05-01T10:53:38.417Z,88159.00
2023-05-01T10:54:38.379Z,88149.00
2023-05-01T10:55:38.365Z,88155.00
2023-05-01T10:56:38.351Z,88149.00
2023-05-01T10:57:38.320Z,88149.00
2023-05-01T10:58:38.278Z,88151.00
2023-05-01T10:59:38.268Z,88153.00
2023-05-01T11:00:38.239Z,88155.00
2023-05-01T11:01:38.323Z,88157.00
2023-05-01T11:02:38.247Z,88149.00
2023-05-01T11:03:38.191Z,88153.00
2023-05-01T11:04:38.138Z,88149.00
2023-05-01T11:05:38.786Z,88149.00
2023-05-01T11:06:38.305Z,88147.00
2023-05-01T11:07:38.077Z,88145.00
2023-05-01T11:08:38.047Z,88149.00
2023-05-01T11:09:38.076Z,88145.00
2023-05-01T11:10:38.012Z,88143.00
2023-05-01T11:11:37.983Z,88141.00
2023-05-01T11:12:37.973Z,88141.00
2023-05-01T11:13:37.935Z,88143.00
2023-05-01T11:14:37.918Z,88137.00
2023-05-01T11:15:37.888Z,88136.00
2023-05-01T11:16:38.249Z,88139.00
2023-05-01T11:17:37.871Z,88136.00
2023-05-01T11:18:37.804Z,88134.00
2023-05-01T11:19:37.781Z,88134.00
2023-05-01T11:20:37.730Z,88130.00
2023-05-01T11:21:37.719Z,88134.00
2023-05-01T11:22:37.681Z,88136.00
2023-05-01T11:23:37.646Z,88132.00
2023-05-01T11:24:37.623Z,88130.00
2023-05-01T11:25:37.585Z,88132.00
2023-05-01T11:26:37.554Z,88130.00
2023-05-01T11:27:37.595Z,88132.00
2023-05-01T11:28:37.502Z,88126.00
2023-05-01T11:29:37.491Z,88130.00
2023-05-01T11:30:37.453Z,88128.00
2023-05-01T11:31:37.496Z,88124.00
2023-05-01T11:32:37.435Z,88130.00
2023-05-01T11:33:37.380Z,88122.00
2023-05-01T11:34:37.364Z,88120.00
2023-05-01T11:35:37.359Z,88120.00
2023-05-01T11:36:37.346Z,88118.00
2023-05-01T11:37:37.344Z,88118.00
2023-05-01T11:38:37.330Z,88114.00
2023-05-01T11:39:37.331Z,88112.00
2023-05-01T11:40:37.301Z,88110.00
2023-05-01T11:41:37.301Z,88106.00
2023-05-01T11:42:37.324Z,88108.00
2023-05-01T11:43:37.282Z,88110.00
2023-05-01T11:44:37.236Z,88112.00